Hovedside
METAR-TAF:

METAR-TAF

Lufthavner :

Hasvik lufthavn

Hasvik, Norge

breddegrad: 70-29N, lengdegrad: 022-09E, høyde over havet: 10 m

Gjeldene værobservasjon

Denne rapporten ble laget for 27 minutter siden, klokken 18:20 UTC
Vind 26 kt fra Vest med vindkast opp mot 39 kt
Temperatur 8°C
Luftfuktighet 81%
Trykk 1018 hPa
Sikt 10 km eller mer
Spredte skyer i en høyde av 1600 ft
Brutte skyer i en høyde av 3000 ft
lette regnbyger

METAR: ENHK 191820Z 28026G39KT 9999 -SHRA SCT016 BKN030 08/05 Q1018

Tid: 19:47 (18:47 UTC)


TAF: fraværende

Værobservasjoner og værvarsel for over 4000 flyplasser (METAR- og TAF-rapporter).

Tilgjengelige stasjoner er representert av de røde og gule prikkene på kartet.

Hold musepekeren over prikken for å se navnet på stasjonen.

Klikk så for å se værobservasjoner og -varsler.

For å forandre kartet kan du klikke på den grønne knappen med svart kryss for å zoome inn, på den grønne knappen med strek for å zoome ut, eller på de grønne pilene for å se tilstøtende kart.


METAR-TAF: